sensor_id;sensor_type;location;lat;lon;timestamp;pressure;altitude;pressure_sealevel;temperature;humidity
72486;BME280;60509;47.308;-122.428;2022-10-31T00:02:05;77340.62;;;15.34;66.55
72486;BME280;60509;47.308;-122.428;2022-10-31T00:04:30;77340.62;;;15.04;66.55
72486;BME280;60509;47.308;-122.428;2022-10-31T00:06:55;77340.62;;;15.46;66.55
72486;BME280;60509;47.308;-122.428;2022-10-31T00:09:21;77340.62;;;16.02;66.55
72486;BME280;60509;47.308;-122.428;2022-10-31T00:11:46;77340.62;;;15.58;66.55
72486;BME280;60509;47.308;-122.428;2022-10-31T00:14:11;77340.62;;;15.46;66.55
72486;BME280;60509;47.308;-122.428;2022-10-31T00:16:36;77340.62;;;16.34;66.55
72486;BME280;60509;47.308;-122.428;2022-10-31T00:19:04;77340.62;;;16.34;66.55
72486;BME280;60509;47.308;-122.428;2022-10-31T00:21:27;77340.62;;;16.54;66.55
72486;BME280;60509;47.308;-122.428;2022-10-31T00:23:52;77340.62;;;16.22;66.55
72486;BME280;60509;47.308;-122.428;2022-10-31T00:26:17;77340.62;;;16.96;66.55
72486;BME280;60509;47.308;-122.428;2022-10-31T00:28:43;77340.62;;;16.94;66.55
72486;BME280;60509;47.308;-122.428;2022-10-31T00:31:09;77340.62;;;16.44;66.55
72486;BME280;60509;47.308;-122.428;2022-10-31T00:33:35;77340.62;;;16.54;66.55
72486;BME280;60509;47.308;-122.428;2022-10-31T00:35:58;77340.62;;;15.34;66.55
72486;BME280;60509;47.308;-122.428;2022-10-31T00:38:24;77340.62;;;16.34;66.55
72486;BME280;60509;47.308;-122.428;2022-10-31T00:40:49;77340.62;;;16.64;66.55
72486;BME280;60509;47.308;-122.428;2022-10-31T00:43:14;77340.62;;;16.96;66.55
72486;BME280;60509;47.308;-122.428;2022-10-31T00:45:40;77340.62;;;16.54;66.55
72486;BME280;60509;47.308;-122.428;2022-10-31T00:48:05;77340.62;;;16.34;66.55
72486;BME280;60509;47.308;-122.428;2022-10-31T00:50:31;77340.62;;;17.06;66.55
72486;BME280;60509;47.308;-122.428;2022-10-31T00:52:55;77340.62;;;16.44;66.55
72486;BME280;60509;47.308;-122.428;2022-10-31T00:55:21;77340.62;;;16.74;66.55
72486;BME280;60509;47.308;-122.428;2022-10-31T00:57:47;77340.62;;;16.64;66.55
72486;BME280;60509;47.308;-122.428;2022-10-31T01:00:12;77340.62;;;16.84;66.55
72486;BME280;60509;47.308;-122.428;2022-10-31T01:02:36;77340.62;;;16.54;66.55
72486;BME280;60509;47.308;-122.428;2022-10-31T01:05:02;77340.62;;;17.06;66.55
72486;BME280;60509;47.308;-122.428;2022-10-31T01:07:27;77340.62;;;16.34;66.55
72486;BME280;60509;47.308;-122.428;2022-10-31T01:09:52;77340.62;;;16.64;66.55
72486;BME280;60509;47.308;-122.428;2022-10-31T01:12:18;77340.62;;;17.64;66.55
72486;BME280;60509;47.308;-122.428;2022-10-31T01:14:44;77340.62;;;17.18;66.55
72486;BME280;60509;47.308;-122.428;2022-10-31T01:17:08;77340.62;;;17.54;66.55
72486;BME280;60509;47.308;-122.428;2022-10-31T01:19:34;77340.62;;;17.30;66.55
72486;BME280;60509;47.308;-122.428;2022-10-31T01:21:59;77340.62;;;16.54;66.55
72486;BME280;60509;47.308;-122.428;2022-10-31T01:24:24;77340.62;;;15.58;66.55
72486;BME280;60509;47.308;-122.428;2022-10-31T01:26:49;77340.62;;;16.14;66.55
72486;BME280;60509;47.308;-122.428;2022-10-31T01:29:14;77340.62;;;16.64;66.55
72486;BME280;60509;47.308;-122.428;2022-10-31T01:31:40;77340.62;;;16.24;66.55
72486;BME280;60509;47.308;-122.428;2022-10-31T01:34:06;77340.62;;;15.70;66.55
72486;BME280;60509;47.308;-122.428;2022-10-31T01:36:33;77340.62;;;16.24;66.55
72486;BME280;60509;47.308;-122.428;2022-10-31T01:38:58;77340.62;;;16.44;66.55
72486;BME280;60509;47.308;-122.428;2022-10-31T01:41:23;77340.62;;;16.24;66.55
72486;BME280;60509;47.308;-122.428;2022-10-31T01:43:49;77340.62;;;16.34;66.55
72486;BME280;60509;47.308;-122.428;2022-10-31T01:46:12;77340.62;;;16.32;66.55
72486;BME280;60509;47.308;-122.428;2022-10-31T01:48:37;77340.62;;;15.90;66.55
72486;BME280;60509;47.308;-122.428;2022-10-31T01:51:02;77340.62;;;16.44;66.55
72486;BME280;60509;47.308;-122.428;2022-10-31T01:53:27;77340.62;;;16.64;66.55
72486;BME280;60509;47.308;-122.428;2022-10-31T01:55:53;77340.62;;;16.96;66.55
72486;BME280;60509;47.308;-122.428;2022-10-31T01:58:22;77340.62;;;17.18;66.55
72486;BME280;60509;47.308;-122.428;2022-10-31T02:00:46;77340.62;;;16.74;66.55
72486;BME280;60509;47.308;-122.428;2022-10-31T02:03:08;77340.62;;;16.44;66.55
72486;BME280;60509;47.308;-122.428;2022-10-31T02:05:34;77340.62;;;16.54;66.55
72486;BME280;60509;47.308;-122.428;2022-10-31T02:08:03;77340.62;;;16.24;66.55
72486;BME280;60509;47.308;-122.428;2022-10-31T02:10:25;77340.62;;;15.46;66.55
72486;BME280;60509;47.308;-122.428;2022-10-31T02:12:50;77340.62;;;15.80;66.55
72486;BME280;60509;47.308;-122.428;2022-10-31T02:15:15;77340.62;;;15.92;66.55
72486;BME280;60509;47.308;-122.428;2022-10-31T02:17:40;77340.62;;;16.00;66.55
72486;BME280;60509;47.308;-122.428;2022-10-31T02:20:12;77340.62;;;15.80;66.55
72486;BME280;60509;47.308;-122.428;2022-10-31T02:22:36;77340.62;;;16.02;66.55
72486;BME280;60509;47.308;-122.428;2022-10-31T02:25:08;77340.62;;;15.70;66.55
72486;BME280;60509;47.308;-122.428;2022-10-31T02:27:36;77340.62;;;15.56;66.55
72486;BME280;60509;47.308;-122.428;2022-10-31T02:30:20;77340.62;;;15.78;66.55
72486;BME280;60509;47.308;-122.428;2022-10-31T02:32:15;77340.62;;;16.34;66.55
72486;BME280;60509;47.308;-122.428;2022-10-31T02:34:40;77340.62;;;16.44;66.55
72486;BME280;60509;47.308;-122.428;2022-10-31T02:37:09;77340.62;;;16.64;66.55
72486;BME280;60509;47.308;-122.428;2022-10-31T02:39:31;77340.62;;;16.44;66.55
72486;BME280;60509;47.308;-122.428;2022-10-31T02:42:00;77340.62;;;16.02;66.55
72486;BME280;60509;47.308;-122.428;2022-10-31T02:44:24;77340.62;;;16.24;66.55
72486;BME280;60509;47.308;-122.428;2022-10-31T02:46:47;77340.62;;;15.58;66.55
72486;BME280;60509;47.308;-122.428;2022-10-31T02:49:11;77340.62;;;15.90;66.55
72486;BME280;60509;47.308;-122.428;2022-10-31T02:51:34;77340.62;;;15.14;66.55
72486;BME280;60509;47.308;-122.428;2022-10-31T02:53:59;77340.62;;;15.24;66.55
72486;BME280;60509;47.308;-122.428;2022-10-31T02:56:24;77340.62;;;15.34;66.55
72486;BME280;60509;47.308;-122.428;2022-10-31T02:58:51;77340.62;;;16.64;66.55
72486;BME280;60509;47.308;-122.428;2022-10-31T03:03:40;77340.62;;;16.74;66.55
72486;BME280;60509;47.308;-122.428;2022-10-31T03:06:06;77340.62;;;16.02;66.55
72486;BME280;60509;47.308;-122.428;2022-10-31T03:08:32;77340.62;;;15.68;66.55
72486;BME280;60509;47.308;-122.428;2022-10-31T03:10:55;77340.62;;;16.34;66.55
72486;BME280;60509;47.308;-122.428;2022-10-31T03:13:24;77340.62;;;16.34;66.55
72486;BME280;60509;47.308;-122.428;2022-10-31T03:15:45;77340.62;;;16.02;66.55
72486;BME280;60509;47.308;-122.428;2022-10-31T03:18:10;77340.62;;;16.44;66.55
72486;BME280;60509;47.308;-122.428;2022-10-31T03:20:37;77340.62;;;15.70;66.55
72486;BME280;60509;47.308;-122.428;2022-10-31T03:22:59;77340.62;;;16.34;66.55
72486;BME280;60509;47.308;-122.428;2022-10-31T03:25:23;77340.62;;;16.02;66.55
72486;BME280;60509;47.308;-122.428;2022-10-31T03:27:50;77340.62;;;16.34;66.55
72486;BME280;60509;47.308;-122.428;2022-10-31T03:30:14;77340.62;;;16.44;66.55
72486;BME280;60509;47.308;-122.428;2022-10-31T03:32:41;77340.62;;;17.18;66.55
72486;BME280;60509;47.308;-122.428;2022-10-31T03:35:06;77340.62;;;16.44;66.55
72486;BME280;60509;47.308;-122.428;2022-10-31T03:37:32;77340.62;;;16.34;66.55
72486;BME280;60509;47.308;-122.428;2022-10-31T03:39:56;77340.62;;;16.44;66.55
72486;BME280;60509;47.308;-122.428;2022-10-31T03:42:23;77340.62;;;16.54;66.55
72486;BME280;60509;47.308;-122.428;2022-10-31T03:44:55;77340.62;;;16.54;66.55
72486;BME280;60509;47.308;-122.428;2022-10-31T03:47:11;77340.62;;;16.44;66.55
72486;BME280;60509;47.308;-122.428;2022-10-31T03:49:36;77340.62;;;16.44;66.55
72486;BME280;60509;47.308;-122.428;2022-10-31T03:52:06;77340.62;;;16.14;66.55
72486;BME280;60509;47.308;-122.428;2022-10-31T03:54:32;77340.62;;;16.22;66.55
72486;BME280;60509;47.308;-122.428;2022-10-31T03:56:55;77340.62;;;16.12;66.55
72486;BME280;60509;47.308;-122.428;2022-10-31T03:59:21;77340.62;;;16.54;66.55
72486;BME280;60509;47.308;-122.428;2022-10-31T04:01:46;77340.62;;;16.34;66.55
72486;BME280;60509;47.308;-122.428;2022-10-31T04:04:08;77340.62;;;16.34;66.55
72486;BME280;60509;47.308;-122.428;2022-10-31T04:06:35;77340.62;;;16.02;66.55
72486;BME280;60509;47.308;-122.428;2022-10-31T04:09:02;77340.62;;;15.58;66.55
72486;BME280;60509;47.308;-122.428;2022-10-31T04:11:25;77340.62;;;15.34;66.55
72486;BME280;60509;47.308;-122.428;2022-10-31T04:13:49;77340.62;;;15.36;66.55
72486;BME280;60509;47.308;-122.428;2022-10-31T04:16:15;77340.62;;;15.90;66.55
72486;BME280;60509;47.308;-122.428;2022-10-31T04:18:39;77340.62;;;16.24;66.55
72486;BME280;60509;47.308;-122.428;2022-10-31T04:21:06;77340.62;;;16.24;66.55
72486;BME280;60509;47.308;-122.428;2022-10-31T04:23:30;77340.62;;;15.58;66.55
72486;BME280;60509;47.308;-122.428;2022-10-31T04:25:55;77340.62;;;15.78;66.55
72486;BME280;60509;47.308;-122.428;2022-10-31T04:28:20;77340.62;;;16.12;66.55
72486;BME280;60509;47.308;-122.428;2022-10-31T04:30:45;77340.62;;;15.70;66.55
72486;BME280;60509;47.308;-122.428;2022-10-31T04:33:10;77340.62;;;16.12;66.55
72486;BME280;60509;47.308;-122.428;2022-10-31T04:35:36;77340.62;;;15.80;66.55
72486;BME280;60509;47.308;-122.428;2022-10-31T04:38:01;77340.62;;;15.68;66.55
72486;BME280;60509;47.308;-122.428;2022-10-31T04:40:26;77340.62;;;15.46;66.55
72486;BME280;60509;47.308;-122.428;2022-10-31T04:42:52;77340.62;;;15.04;66.55
72486;BME280;60509;47.308;-122.428;2022-10-31T04:45:17;77340.62;;;15.34;66.55
72486;BME280;60509;47.308;-122.428;2022-10-31T04:47:42;77340.62;;;14.84;66.55
72486;BME280;60509;47.308;-122.428;2022-10-31T04:50:08;77340.62;;;15.24;66.55
72486;BME280;60509;47.308;-122.428;2022-10-31T04:52:38;77340.62;;;15.56;66.55
72486;BME280;60509;47.308;-122.428;2022-10-31T04:54:58;77340.62;;;15.58;66.55
72486;BME280;60509;47.308;-122.428;2022-10-31T04:57:23;77340.62;;;15.34;66.55
72486;BME280;60509;47.308;-122.428;2022-10-31T04:59:48;77340.62;;;15.46;66.55
72486;BME280;60509;47.308;-122.428;2022-10-31T05:02:14;77340.62;;;15.46;66.55
72486;BME280;60509;47.308;-122.428;2022-10-31T05:04:39;77340.62;;;15.34;66.55
72486;BME280;60509;47.308;-122.428;2022-10-31T05:07:04;77340.62;;;15.46;66.55
72486;BME280;60509;47.308;-122.428;2022-10-31T05:09:30;77340.62;;;16.44;66.55
72486;BME280;60509;47.308;-122.428;2022-10-31T05:11:55;77340.62;;;16.02;66.55
72486;BME280;60509;47.308;-122.428;2022-10-31T05:14:20;77340.62;;;16.12;66.55
72486;BME280;60509;47.308;-122.428;2022-10-31T05:16:45;77340.62;;;15.46;66.55
72486;BME280;60509;47.308;-122.428;2022-10-31T05:19:10;77340.62;;;15.58;66.55
72486;BME280;60509;47.308;-122.428;2022-10-31T05:21:36;77340.62;;;16.44;66.55
72486;BME280;60509;47.308;-122.428;2022-10-31T05:24:01;77340.62;;;16.54;66.55
72486;BME280;60509;47.308;-122.428;2022-10-31T05:26:26;77340.62;;;16.44;66.55
72486;BME280;60509;47.308;-122.428;2022-10-31T05:28:52;77340.62;;;16.54;66.55
72486;BME280;60509;47.308;-122.428;2022-10-31T05:31:17;77340.62;;;16.74;66.55
72486;BME280;60509;47.308;-122.428;2022-10-31T05:33:42;77340.62;;;16.54;66.55
72486;BME280;60509;47.308;-122.428;2022-10-31T05:36:08;77340.62;;;16.74;66.55
72486;BME280;60509;47.308;-122.428;2022-10-31T05:38:33;77340.62;;;16.84;66.55
72486;BME280;60509;47.308;-122.428;2022-10-31T05:40:58;77340.62;;;16.86;66.55
72486;BME280;60509;47.308;-122.428;2022-10-31T05:43:23;77340.62;;;16.86;66.55
72486;BME280;60509;47.308;-122.428;2022-10-31T05:45:52;77340.62;;;16.44;66.55
72486;BME280;60509;47.308;-122.428;2022-10-31T05:48:14;77340.62;;;16.44;66.55
72486;BME280;60509;47.308;-122.428;2022-10-31T05:50:39;77340.62;;;16.96;66.55
72486;BME280;60509;47.308;-122.428;2022-10-31T05:53:05;77340.62;;;17.54;66.55
72486;BME280;60509;47.308;-122.428;2022-10-31T05:55:31;77340.62;;;16.84;66.55
72486;BME280;60509;47.308;-122.428;2022-10-31T05:57:55;77340.62;;;16.74;66.55
72486;BME280;60509;47.308;-122.428;2022-10-31T06:00:21;77340.62;;;16.74;66.55
72486;BME280;60509;47.308;-122.428;2022-10-31T06:02:46;77340.62;;;16.34;66.55
72486;BME280;60509;47.308;-122.428;2022-10-31T06:05:11;77340.62;;;16.54;66.55
72486;BME280;60509;47.308;-122.428;2022-10-31T06:07:36;77340.62;;;16.74;66.55
72486;BME280;60509;47.308;-122.428;2022-10-31T06:10:04;77340.62;;;16.74;66.55
72486;BME280;60509;47.308;-122.428;2022-10-31T06:12:27;77340.62;;;17.42;66.55
72486;BME280;60509;47.308;-122.428;2022-10-31T06:14:52;77340.62;;;17.54;66.55
72486;BME280;60509;47.308;-122.428;2022-10-31T06:17:17;77340.62;;;17.54;66.55
72486;BME280;60509;47.308;-122.428;2022-10-31T06:19:43;77340.62;;;17.30;66.55
72486;BME280;60509;47.308;-122.428;2022-10-31T06:22:08;77340.62;;;16.54;66.55
72486;BME280;60509;47.308;-122.428;2022-10-31T06:24:33;77340.62;;;17.42;66.55
72486;BME280;60509;47.308;-122.428;2022-10-31T06:26:58;77340.62;;;17.30;66.55
72486;BME280;60509;47.308;-122.428;2022-10-31T06:29:24;77340.62;;;17.18;66.55
72486;BME280;60509;47.308;-122.428;2022-10-31T06:31:52;77340.62;;;17.42;66.55
72486;BME280;60509;47.308;-122.428;2022-10-31T06:34:15;77340.62;;;17.74;66.55
72486;BME280;60509;47.308;-122.428;2022-10-31T06:36:40;77340.62;;;17.54;66.55
72486;BME280;60509;47.308;-122.428;2022-10-31T06:39:05;77340.62;;;18.18;66.55
72486;BME280;60509;47.308;-122.428;2022-10-31T06:41:31;77340.62;;;18.28;66.55
72486;BME280;60509;47.308;-122.428;2022-10-31T06:43:56;77340.62;;;17.64;66.55
72486;BME280;60509;47.308;-122.428;2022-10-31T06:46:21;77340.62;;;17.54;66.55
72486;BME280;60509;47.308;-122.428;2022-10-31T06:48:46;77340.62;;;18.08;66.55
72486;BME280;60509;47.308;-122.428;2022-10-31T06:51:12;77340.62;;;17.64;66.55
72486;BME280;60509;47.308;-122.428;2022-10-31T06:53:37;77340.62;;;17.64;66.55
72486;BME280;60509;47.308;-122.428;2022-10-31T06:56:02;77340.62;;;17.06;66.55
72486;BME280;60509;47.308;-122.428;2022-10-31T06:58:28;77340.62;;;16.76;66.55
72486;BME280;60509;47.308;-122.428;2022-10-31T07:00:53;77340.62;;;17.18;66.55
72486;BME280;60509;47.308;-122.428;2022-10-31T07:03:18;77340.62;;;17.06;66.55
72486;BME280;60509;47.308;-122.428;2022-10-31T07:05:44;77340.62;;;16.74;66.55
72486;BME280;60509;47.308;-122.428;2022-10-31T07:08:11;77340.62;;;16.86;66.55
72486;BME280;60509;47.308;-122.428;2022-10-31T07:10:35;77340.62;;;17.76;66.55
72486;BME280;60509;47.308;-122.428;2022-10-31T07:13:02;77340.62;;;17.76;66.55
72486;BME280;60509;47.308;-122.428;2022-10-31T07:15:25;77340.62;;;18.64;66.55
72486;BME280;60509;47.308;-122.428;2022-10-31T07:17:50;77340.62;;;17.54;66.55
72486;BME280;60509;47.308;-122.428;2022-10-31T07:20:15;77340.62;;;16.98;66.55
72486;BME280;60509;47.308;-122.428;2022-10-31T07:22:40;77340.62;;;16.84;66.55
72486;BME280;60509;47.308;-122.428;2022-10-31T07:25:06;77340.62;;;16.86;66.55
72486;BME280;60509;47.308;-122.428;2022-10-31T07:27:36;77340.62;;;17.42;66.55
72486;BME280;60509;47.308;-122.428;2022-10-31T07:29:56;77340.62;;;17.54;66.55
72486;BME280;60509;47.308;-122.428;2022-10-31T07:32:21;77340.62;;;16.86;66.55
72486;BME280;60509;47.308;-122.428;2022-10-31T07:34:47;77340.62;;;17.86;66.55
72486;BME280;60509;47.308;-122.428;2022-10-31T07:37:12;77340.62;;;18.64;66.55
72486;BME280;60509;47.308;-122.428;2022-10-31T07:39:37;77340.62;;;17.86;66.55
72486;BME280;60509;47.308;-122.428;2022-10-31T07:42:03;77340.62;;;17.54;66.55
72486;BME280;60509;47.308;-122.428;2022-10-31T07:44:28;77340.62;;;17.64;66.55
72486;BME280;60509;47.308;-122.428;2022-10-31T07:46:53;77340.62;;;18.30;66.55
72486;BME280;60509;47.308;-122.428;2022-10-31T07:49:19;77340.62;;;18.74;66.55
72486;BME280;60509;47.308;-122.428;2022-10-31T07:51:44;77340.62;;;18.64;66.55
72486;BME280;60509;47.308;-122.428;2022-10-31T07:54:10;77340.62;;;18.64;66.55
72486;BME280;60509;47.308;-122.428;2022-10-31T07:56:35;77340.62;;;18.64;66.55
72486;BME280;60509;47.308;-122.428;2022-10-31T07:59:00;77340.62;;;18.40;66.55
72486;BME280;60509;47.308;-122.428;2022-10-31T08:01:26;77340.62;;;17.54;66.55
72486;BME280;60509;47.308;-122.428;2022-10-31T08:03:51;77340.62;;;17.54;66.55
72486;BME280;60509;47.308;-122.428;2022-10-31T08:06:16;77340.62;;;17.98;66.55
72486;BME280;60509;47.308;-122.428;2022-10-31T08:08:42;77340.62;;;17.64;66.55
72486;BME280;60509;47.308;-122.428;2022-10-31T08:11:07;77340.62;;;17.86;66.55
72486;BME280;60509;47.308;-122.428;2022-10-31T08:13:32;77340.62;;;17.64;66.55
72486;BME280;60509;47.308;-122.428;2022-10-31T08:15:58;77340.62;;;17.76;66.55
72486;BME280;60509;47.308;-122.428;2022-10-31T08:18:23;77340.62;;;18.52;66.55
72486;BME280;60509;47.308;-122.428;2022-10-31T08:20:48;77340.62;;;18.06;66.55
72486;BME280;60509;47.308;-122.428;2022-10-31T08:23:13;77340.62;;;18.08;66.55
72486;BME280;60509;47.308;-122.428;2022-10-31T08:25:39;77340.62;;;17.76;66.55
72486;BME280;60509;47.308;-122.428;2022-10-31T08:28:05;77340.62;;;18.08;66.55
72486;BME280;60509;47.308;-122.428;2022-10-31T08:30:31;77340.62;;;18.28;66.55
72486;BME280;60509;47.308;-122.428;2022-10-31T08:33:00;77340.62;;;18.74;66.55
72486;BME280;60509;47.308;-122.428;2022-10-31T08:35:20;77340.62;;;18.74;66.55
72486;BME280;60509;47.308;-122.428;2022-10-31T08:37:45;77340.62;;;17.86;66.55
72486;BME280;60509;47.308;-122.428;2022-10-31T08:40:11;77340.62;;;18.40;66.55
72486;BME280;60509;47.308;-122.428;2022-10-31T08:42:36;77340.62;;;17.42;66.55
72486;BME280;60509;47.308;-122.428;2022-10-31T08:45:02;77340.62;;;17.52;66.55
72486;BME280;60509;47.308;-122.428;2022-10-31T08:47:27;77340.62;;;18.52;66.55
72486;BME280;60509;47.308;-122.428;2022-10-31T08:49:52;77340.62;;;19.14;66.55
72486;BME280;60509;47.308;-122.428;2022-10-31T08:52:18;77340.62;;;18.40;66.55
72486;BME280;60509;47.308;-122.428;2022-10-31T08:54:43;77340.62;;;17.86;66.55
72486;BME280;60509;47.308;-122.428;2022-10-31T08:57:08;77340.62;;;17.42;66.55
72486;BME280;60509;47.308;-122.428;2022-10-31T08:59:34;77340.62;;;17.96;66.55
72486;BME280;60509;47.308;-122.428;2022-10-31T09:01:59;77340.62;;;17.74;66.55
72486;BME280;60509;47.308;-122.428;2022-10-31T09:04:25;77340.62;;;18.28;66.55
72486;BME280;60509;47.308;-122.428;2022-10-31T09:06:50;77340.62;;;18.18;66.55
72486;BME280;60509;47.308;-122.428;2022-10-31T09:09:15;77340.62;;;18.08;66.55
72486;BME280;60509;47.308;-122.428;2022-10-31T09:11:41;77340.62;;;17.74;66.55
72486;BME280;60509;47.308;-122.428;2022-10-31T09:14:06;77340.62;;;18.40;66.55
72486;BME280;60509;47.308;-122.428;2022-10-31T09:16:31;77340.62;;;17.96;66.55
72486;BME280;60509;47.308;-122.428;2022-10-31T09:18:57;77340.62;;;18.64;66.55
72486;BME280;60509;47.308;-122.428;2022-10-31T09:21:22;77340.62;;;18.64;66.55
72486;BME280;60509;47.308;-122.428;2022-10-31T09:23:47;77340.62;;;17.96;66.55
72486;BME280;60509;47.308;-122.428;2022-10-31T09:26:13;77340.62;;;19.64;66.55
72486;BME280;60509;47.308;-122.428;2022-10-31T09:28:38;77340.62;;;19.64;66.55
72486;BME280;60509;47.308;-122.428;2022-10-31T09:31:04;77340.62;;;19.14;66.55
72486;BME280;60509;47.308;-122.428;2022-10-31T09:33:29;77340.62;;;18.84;66.55
72486;BME280;60509;47.308;-122.428;2022-10-31T09:35:54;77340.62;;;18.38;66.55
72486;BME280;60509;47.308;-122.428;2022-10-31T09:38:20;77340.62;;;18.94;66.55
72486;BME280;60509;47.308;-122.428;2022-10-31T09:40:47;77340.62;;;18.64;66.55
72486;BME280;60509;47.308;-122.428;2022-10-31T09:43:17;77340.62;;;17.96;66.55
72486;BME280;60509;47.308;-122.428;2022-10-31T09:45:41;77340.62;;;18.84;66.55
72486;BME280;60509;47.308;-122.428;2022-10-31T09:48:13;77340.62;;;19.64;66.55
72486;BME280;60509;47.308;-122.428;2022-10-31T09:50:31;77340.62;;;19.34;66.55
72486;BME280;60509;47.308;-122.428;2022-10-31T09:52:58;77340.62;;;18.30;66.55
72486;BME280;60509;47.308;-122.428;2022-10-31T09:55:21;77340.62;;;17.42;66.55
72486;BME280;60509;47.308;-122.428;2022-10-31T09:57:42;77340.62;;;16.54;66.55
72486;BME280;60509;47.308;-122.428;2022-10-31T10:00:15;77340.62;;;15.46;66.55
72486;BME280;60509;47.308;-122.428;2022-10-31T10:02:37;77340.62;;;15.24;66.55
72486;BME280;60509;47.308;-122.428;2022-10-31T10:05:01;77340.62;;;14.64;66.55
72486;BME280;60509;47.308;-122.428;2022-10-31T10:07:30;77340.62;;;14.84;66.55
72486;BME280;60509;47.308;-122.428;2022-10-31T10:09:49;77340.62;;;14.22;66.55
72486;BME280;60509;47.308;-122.428;2022-10-31T10:12:19;77340.62;;;13.88;66.55
72486;BME280;60509;47.308;-122.428;2022-10-31T10:14:48;77340.62;;;13.46;66.55
72486;BME280;60509;47.308;-122.428;2022-10-31T10:17:13;77340.62;;;13.68;66.55
72486;BME280;60509;47.308;-122.428;2022-10-31T10:19:42;77340.62;;;13.44;66.55
72486;BME280;60509;47.308;-122.428;2022-10-31T10:22:01;77340.62;;;13.24;66.55
72486;BME280;60509;47.308;-122.428;2022-10-31T10:24:33;77340.62;;;13.56;66.55
72486;BME280;60509;47.308;-122.428;2022-10-31T10:26:52;77340.62;;;13.44;66.55
72486;BME280;60509;47.308;-122.428;2022-10-31T10:29:25;77340.62;;;13.66;66.55
72486;BME280;60509;47.308;-122.428;2022-10-31T10:31:40;77340.62;;;14.00;66.55
72486;BME280;60509;47.308;-122.428;2022-10-31T10:34:10;77340.62;;;13.64;66.55
72486;BME280;60509;47.308;-122.428;2022-10-31T10:36:32;77340.62;;;13.66;66.55
72486;BME280;60509;47.308;-122.428;2022-10-31T10:38:57;77340.62;;;13.24;66.55
72486;BME280;60509;47.308;-122.428;2022-10-31T10:41:26;77340.62;;;13.12;66.55
72486;BME280;60509;47.308;-122.428;2022-10-31T10:43:44;77340.62;;;13.24;66.55
72486;BME280;60509;47.308;-122.428;2022-10-31T10:46:18;77340.62;;;13.24;66.55
72486;BME280;60509;47.308;-122.428;2022-10-31T10:48:43;77340.62;;;13.44;66.55
72486;BME280;60509;47.308;-122.428;2022-10-31T10:51:01;77340.62;;;13.34;66.55
72486;BME280;60509;47.308;-122.428;2022-10-31T10:53:39;77340.62;;;13.34;66.55
72486;BME280;60509;47.308;-122.428;2022-10-31T10:55:55;77340.62;;;13.24;66.55
72486;BME280;60509;47.308;-122.428;2022-10-31T10:58:15;77340.62;;;13.00;66.55
72486;BME280;60509;47.308;-122.428;2022-10-31T11:00:42;77340.62;;;13.34;66.55
72486;BME280;60509;47.308;-122.428;2022-10-31T11:03:05;77340.62;;;13.24;66.55
72486;BME280;60509;47.308;-122.428;2022-10-31T11:05:37;77340.62;;;13.64;66.55
72486;BME280;60509;47.308;-122.428;2022-10-31T11:07:56;77340.62;;;13.56;66.55
72486;BME280;60509;47.308;-122.428;2022-10-31T11:10:21;77340.62;;;13.76;66.55
72486;BME280;60509;47.308;-122.428;2022-10-31T11:12:59;77340.62;;;13.68;66.55
72486;BME280;60509;47.308;-122.428;2022-10-31T11:15:20;77340.62;;;13.88;66.55
72486;BME280;60509;47.308;-122.428;2022-10-31T11:17:39;77340.62;;;13.44;66.55
72486;BME280;60509;47.308;-122.428;2022-10-31T11:20:05;77340.62;;;13.66;66.55
72486;BME280;60509;47.308;-122.428;2022-10-31T11:22:27;77340.62;;;13.24;66.55
72486;BME280;60509;47.308;-122.428;2022-10-31T11:24:52;77340.62;;;13.46;66.55
72486;BME280;60509;47.308;-122.428;2022-10-31T11:27:23;77340.62;;;13.12;66.55
72486;BME280;60509;47.308;-122.428;2022-10-31T11:29:43;77340.62;;;13.44;66.55
72486;BME280;60509;47.308;-122.428;2022-10-31T11:32:19;77340.62;;;13.86;66.55
72486;BME280;60509;47.308;-122.428;2022-10-31T11:34:36;77340.62;;;13.56;66.55
72486;BME280;60509;47.308;-122.428;2022-10-31T11:37:03;77340.62;;;13.56;66.55
72486;BME280;60509;47.308;-122.428;2022-10-31T11:39:25;77340.62;;;13.34;66.55
72486;BME280;60509;47.308;-122.428;2022-10-31T11:41:50;77340.62;;;13.66;66.55
72486;BME280;60509;47.308;-122.428;2022-10-31T11:44:18;77340.62;;;13.56;66.55
72486;BME280;60509;47.308;-122.428;2022-10-31T11:46:41;77340.62;;;13.66;66.55
72486;BME280;60509;47.308;-122.428;2022-10-31T11:49:13;77340.62;;;13.44;66.55
72486;BME280;60509;47.308;-122.428;2022-10-31T11:51:32;77340.62;;;13.98;66.55
72486;BME280;60509;47.308;-122.428;2022-10-31T11:53:58;77340.62;;;14.22;66.55
72486;BME280;60509;47.308;-122.428;2022-10-31T11:56:21;77340.62;;;13.86;66.55
72486;BME280;60509;47.308;-122.428;2022-10-31T11:58:56;77340.62;;;13.64;66.55
72486;BME280;60509;47.308;-122.428;2022-10-31T12:01:25;77340.62;;;13.78;66.55
72486;BME280;60509;47.308;-122.428;2022-10-31T12:03:45;77340.62;;;13.34;66.55
72486;BME280;60509;47.308;-122.428;2022-10-31T12:06:06;77340.62;;;14.00;66.55
72486;BME280;60509;47.308;-122.428;2022-10-31T12:08:31;77340.62;;;15.14;66.55
72486;BME280;60509;47.308;-122.428;2022-10-31T12:10:58;77340.62;;;14.74;66.55
72486;BME280;60509;47.308;-122.428;2022-10-31T12:13:30;77340.62;;;14.94;66.55
72486;BME280;60509;47.308;-122.428;2022-10-31T12:15:45;77340.62;;;15.24;66.55
72486;BME280;60509;47.308;-122.428;2022-10-31T12:18:24;77340.62;;;15.34;66.55
72486;BME280;60509;47.308;-122.428;2022-10-31T12:20:40;77340.62;;;15.46;66.55
72486;BME280;60509;47.308;-122.428;2022-10-31T12:23:05;77340.62;;;16.02;66.55